Time;durP1;ratioP1;P1;durP2;ratioP2;P2;SDS_P1;SDS_P2;PMS_P1;PMS_P2;Temp;Humidity;BMP_temperature;BMP_pressure;BME280_temperature;BME280_humidity;BME280_pressure;Samples;Min_cycle;Max_cycle;Signal;HPM_P1;HPM_P2
2023/04/30 00:01:41;;;;;;;;;;;;;;;12.54;64.22;99810.80;102651;1264;108288;-73
2023/04/30 00:04:24;;;;;;;;;;;;;;;12.51;64.47;99812.35;102624;1261;124621;-73
2023/04/30 00:07:07;;;;;;;;;;;;;;;12.49;64.62;99811.93;102877;1258;114614;-73
2023/04/30 00:09:30;;;;;;;;;;;;;;;12.47;64.92;99810.95;102857;1256;125207;-73
2023/04/30 00:11:55;;;;;;;;;;;;;;;12.46;65.19;99815.73;103059;1256;99222;-73
2023/04/30 00:14:21;;;;;;;;;;;;;;;12.43;65.54;99811.69;103061;1256;107654;-74
2023/04/30 00:17:04;;;;;;;;;;;;;;;12.40;65.85;99814.92;103063;1256;98441;-73
2023/04/30 00:19:35;;;;;;;;;;;;;;;12.38;66.13;99813.81;103074;1260;113235;-75
2023/04/30 00:22:12;;;;;;;;;;;;;;;12.35;66.40;99813.94;102915;1260;125169;-75
2023/04/30 00:24:55;;;;;;;;;;;;;;;12.35;66.64;99815.67;103088;1256;99062;-74
2023/04/30 00:27:38;;;;;;;;;;;;;;;12.35;66.80;99815.70;102896;1256;125143;-74
2023/04/30 00:30:07;;;;;;;;;;;;;;;12.36;66.81;99817.55;103086;1260;99147;-75
2023/04/30 00:32:50;;;;;;;;;;;;;;;12.41;67.02;99820.49;103200;1260;125315;-74
2023/04/30 00:35:18;;;;;;;;;;;;;;;12.42;67.14;99822.35;103028;1260;107433;-75
2023/04/30 00:37:44;;;;;;;;;;;;;;;12.44;67.19;99822.95;102872;1256;99153;-74
2023/04/30 00:40:09;;;;;;;;;;;;;;;12.45;67.23;99825.90;102970;1260;124928;-77
2023/04/30 00:42:40;;;;;;;;;;;;;;;12.42;67.31;99823.39;103261;1260;99161;-74
2023/04/30 00:45:23;;;;;;;;;;;;;;;12.40;67.42;99826.48;102963;1256;123673;-76
2023/04/30 00:48:06;;;;;;;;;;;;;;;12.39;67.55;99827.38;103077;1256;108248;-76
2023/04/30 00:50:37;;;;;;;;;;;;;;;12.41;67.89;99828.33;102993;1256;124729;-76
2023/04/30 00:53:00;;;;;;;;;;;;;;;12.41;67.81;99827.62;103122;1256;106839;-77
2023/04/30 00:55:24;;;;;;;;;;;;;;;12.39;68.15;99830.86;103076;1256;99146;-74
2023/04/30 00:58:07;;;;;;;;;;;;;;;12.38;68.18;99828.12;102987;1260;124279;-77
2023/04/30 01:00:31;;;;;;;;;;;;;;;12.35;68.49;99827.53;103010;1256;107831;-76
2023/04/30 01:03:11;;;;;;;;;;;;;;;12.33;68.65;99827.49;102940;1256;125355;-74
2023/04/30 01:05:34;;;;;;;;;;;;;;;12.32;68.83;99825.61;103025;1261;108215;-73
2023/04/30 01:08:17;;;;;;;;;;;;;;;12.29;68.96;99826.25;103073;1256;99371;-75
2023/04/30 01:10:45;;;;;;;;;;;;;;;12.29;69.29;99827.46;103047;1261;124331;-75
2023/04/30 01:13:30;;;;;;;;;;;;;;;12.29;69.55;99826.77;103050;1256;110486;-75
2023/04/30 01:16:15;;;;;;;;;;;;;;;12.26;69.64;99826.23;103191;1256;124403;-76
2023/04/30 01:18:45;;;;;;;;;;;;;;;12.23;69.89;99827.95;103011;1258;105924;-77
2023/04/30 01:21:08;;;;;;;;;;;;;;;12.22;70.09;99829.04;102937;1261;124608;-77
2023/04/30 01:23:41;;;;;;;;;;;;;;;12.22;70.19;99831.85;103097;1256;112699;-77
2023/04/30 01:26:29;;;;;;;;;;;;;;;12.20;70.39;99832.09;102996;1260;107079;-77
2023/04/30 01:28:56;;;;;;;;;;;;;;;12.17;70.50;99836.04;102918;1262;99284;-76
2023/04/30 01:31:27;;;;;;;;;;;;;;;12.15;70.77;99837.00;103096;1256;109331;-76
2023/04/30 01:33:50;;;;;;;;;;;;;;;12.14;70.91;99840.54;102988;1261;124497;-77
2023/04/30 01:36:44;;;;;;;;;;;;;;;12.11;71.00;99841.39;103024;1256;114928;-78
2023/04/30 01:39:38;;;;;;;;;;;;;;;12.09;71.33;99842.66;102967;1260;124920;-77
2023/04/30 01:42:13;;;;;;;;;;;;;;;12.08;71.53;99843.41;103018;1260;99587;-78
2023/04/30 01:44:47;;;;;;;;;;;;;;;12.08;71.66;99844.65;103009;1256;125603;-78
2023/04/30 01:47:36;;;;;;;;;;;;;;;12.07;71.80;99842.06;102943;1256;99219;-78
2023/04/30 01:50:08;;;;;;;;;;;;;;;12.06;71.96;99845.27;103081;1256;112664;-76
2023/04/30 01:52:38;;;;;;;;;;;;;;;12.05;72.12;99845.48;102757;1261;125363;-76
2023/04/30 01:55:23;;;;;;;;;;;;;;;12.04;72.13;99849.69;103027;1261;99112;-77
2023/04/30 01:57:54;;;;;;;;;;;;;;;12.02;72.27;99849.77;102901;1256;125000;-77
2023/04/30 02:03:10;;;;;;;;;;;;;;;12.01;72.60;99853.64;102719;1260;125198;-76
2023/04/30 02:05:37;;;;;;;;;;;;;;;12.00;72.65;99856.30;102938;1257;107743;-76
2023/04/30 02:08:00;;;;;;;;;;;;;;;11.99;73.01;99854.45;103001;1261;99256;-77
2023/04/30 02:10:24;;;;;;;;;;;;;;;12.02;72.93;99856.95;102931;1257;124956;-78
2023/04/30 02:13:07;;;;;;;;;;;;;;;12.02;73.05;99860.06;103023;1256;99158;-78
2023/04/30 02:15:50;;;;;;;;;;;;;;;12.02;73.13;99862.84;102926;1260;125606;-79
2023/04/30 02:18:16;;;;;;;;;;;;;;;12.03;73.19;99860.91;102953;1261;108441;-79
2023/04/30 02:20:58;;;;;;;;;;;;;;;12.01;73.13;99862.89;103767;1257;125791;-77
2023/04/30 02:23:29;;;;;;;;;;;;;;;12.00;73.32;99863.45;102916;1257;107510;-76
2023/04/30 02:26:13;;;;;;;;;;;;;;;11.99;73.53;99864.39;102977;1257;99161;-76
2023/04/30 02:28:45;;;;;;;;;;;;;;;11.97;73.53;99864.14;102970;1261;124843;-76
2023/04/30 02:31:28;;;;;;;;;;;;;;;11.92;73.56;99870.27;102968;1257;109295;-77
2023/04/30 02:34:11;;;;;;;;;;;;;;;11.88;73.78;99874.79;102895;1260;125478;-79
2023/04/30 02:36:41;;;;;;;;;;;;;;;11.87;73.89;99875.06;102985;1258;107894;-68
2023/04/30 02:39:12;;;;;;;;;;;;;;;11.85;73.81;99878.25;102852;1256;125440;-69
2023/04/30 02:41:35;;;;;;;;;;;;;;;11.83;73.96;99885.99;103008;1256;112751;-66
2023/04/30 02:44:02;;;;;;;;;;;;;;;11.81;73.93;99886.59;102972;1258;107240;-67
2023/04/30 02:46:24;;;;;;;;;;;;;;;11.78;74.12;99895.05;102902;1264;125249;-67
2023/04/30 02:49:07;;;;;;;;;;;;;;;11.76;74.26;99894.77;102962;1260;108436;-67
2023/04/30 02:51:31;;;;;;;;;;;;;;;11.72;74.45;99894.10;102829;1256;125148;-66
2023/04/30 02:53:54;;;;;;;;;;;;;;;11.72;74.52;99900.88;102969;1257;112565;-66
2023/04/30 02:56:17;;;;;;;;;;;;;;;11.70;74.68;99903.77;103001;1261;106104;-66
2023/04/30 02:58:39;;;;;;;;;;;;;;;11.67;74.39;99906.50;102945;1260;125149;-67
2023/04/30 03:01:07;;;;;;;;;;;;;;;11.63;74.34;99907.34;102905;1257;107667;-67
2023/04/30 03:03:30;;;;;;;;;;;;;;;11.59;74.50;99911.36;102828;1257;125143;-67
2023/04/30 03:06:04;;;;;;;;;;;;;;;11.55;74.38;99914.86;102981;1257;113581;-67
2023/04/30 03:08:32;;;;;;;;;;;;;;;11.50;74.16;99917.82;102824;1257;125573;-68
2023/04/30 03:11:03;;;;;;;;;;;;;;;11.46;74.06;99918.84;102991;1260;99162;-67
2023/04/30 03:13:42;;;;;;;;;;;;;;;11.42;73.94;99923.89;102775;1257;107750;-67
2023/04/30 03:16:25;;;;;;;;;;;;;;;11.38;73.79;99922.51;102762;1258;125334;-67
2023/04/30 03:19:09;;;;;;;;;;;;;;;11.34;73.70;99935.02;102970;1257;112821;-67
2023/04/30 03:21:42;;;;;;;;;;;;;;;11.32;73.69;99930.09;102850;1260;125119;-67
2023/04/30 03:24:05;;;;;;;;;;;;;;;11.31;73.80;99928.88;102990;1258;99150;-67
2023/04/30 03:26:48;;;;;;;;;;;;;;;11.29;74.13;99927.92;102911;1258;125299;-66
2023/04/30 03:29:13;;;;;;;;;;;;;;;11.24;73.99;99930.20;103033;1257;99132;-66
2023/04/30 03:31:57;;;;;;;;;;;;;;;11.18;74.06;99936.52;103036;1257;114169;-67
2023/04/30 03:34:30;;;;;;;;;;;;;;;11.13;73.84;99938.81;102878;1257;125241;-67
2023/04/30 03:36:53;;;;;;;;;;;;;;;11.08;74.14;99941.78;103034;1257;99178;-67
2023/04/30 03:39:15;;;;;;;;;;;;;;;11.01;74.18;99949.03;102918;1257;125000;-67
2023/04/30 03:41:38;;;;;;;;;;;;;;;10.93;73.91;99950.91;102905;1263;99152;-67
2023/04/30 03:44:14;;;;;;;;;;;;;;;10.80;73.54;99963.91;102973;1257;113977;-67
2023/04/30 03:46:37;;;;;;;;;;;;;;;10.74;73.16;99970.41;102878;1258;125289;-66
2023/04/30 03:49:10;;;;;;;;;;;;;;;10.66;73.47;99971.79;103023;1260;99167;-67
2023/04/30 03:51:32;;;;;;;;;;;;;;;10.57;72.67;99979.55;102933;1257;125086;-67
2023/04/30 03:53:58;;;;;;;;;;;;;;;10.49;72.19;99979.51;103006;1257;99193;-67
2023/04/30 03:56:25;;;;;;;;;;;;;;;10.40;71.40;99987.64;103026;1257;112143;-67
2023/04/30 03:58:50;;;;;;;;;;;;;;;10.32;71.00;99992.80;102904;1258;108293;-67
2023/04/30 04:01:16;;;;;;;;;;;;;;;10.26;70.76;99998.20;102994;1256;99157;-67
2023/04/30 04:04:00;;;;;;;;;;;;;;;10.21;70.18;100005.33;102867;1258;125238;-67
2023/04/30 04:06:43;;;;;;;;;;;;;;;10.12;69.57;100014.81;102999;1258;99133;-67
2023/04/30 04:09:19;;;;;;;;;;;;;;;10.07;69.38;100016.73;102895;1261;125297;-67
2023/04/30 04:11:51;;;;;;;;;;;;;;;10.03;69.03;100022.42;102971;1260;107327;-68
2023/04/30 04:14:24;;;;;;;;;;;;;;;9.99;68.69;100025.15;102991;1257;99218;-67
2023/04/30 04:17:08;;;;;;;;;;;;;;;9.97;68.46;100033.21;102995;1257;109240;-67
2023/04/30 04:19:50;;;;;;;;;;;;;;;9.96;68.50;100038.98;102991;1260;99147;-68
2023/04/30 04:22:16;;;;;;;;;;;;;;;9.95;68.34;100042.30;102873;1258;125064;-67
2023/04/30 04:24:59;;;;;;;;;;;;;;;9.96;68.29;100048.03;102948;1257;108074;-68
2023/04/30 04:27:22;;;;;;;;;;;;;;;9.95;68.16;100046.47;102866;1257;125265;-68
2023/04/30 04:30:06;;;;;;;;;;;;;;;9.96;68.24;100051.83;102983;1260;108419;-67
2023/04/30 04:32:52;;;;;;;;;;;;;;;9.97;68.17;100048.69;102858;1257;125531;-67
2023/04/30 04:35:35;;;;;;;;;;;;;;;10.02;68.25;100057.36;102930;1260;115518;-68
2023/04/30 04:37:59;;;;;;;;;;;;;;;10.03;68.40;100057.34;102933;1257;107703;-66
2023/04/30 04:40:26;;;;;;;;;;;;;;;10.00;67.93;100065.77;102895;1258;125358;-67
2023/04/30 04:42:54;;;;;;;;;;;;;;;9.99;67.67;100068.92;102943;1258;107892;-67
2023/04/30 04:45:27;;;;;;;;;;;;;;;10.00;67.58;100076.54;102910;1257;126111;-67
2023/04/30 04:47:50;;;;;;;;;;;;;;;9.99;67.18;100081.95;103008;1257;112144;-67
2023/04/30 04:50:27;;;;;;;;;;;;;;;9.99;67.01;100085.59;102960;1257;108328;-68
2023/04/30 04:52:50;;;;;;;;;;;;;;;10.01;67.03;100088.50;102929;1257;124899;-67
2023/04/30 04:55:33;;;;;;;;;;;;;;;10.01;67.13;100087.27;102990;1257;108084;-68
2023/04/30 04:57:58;;;;;;;;;;;;;;;10.02;67.05;100091.23;102864;1258;125606;-67
2023/04/30 05:00:41;;;;;;;;;;;;;;;10.05;67.18;100093.05;102889;1259;112185;-68
2023/04/30 05:03:22;;;;;;;;;;;;;;;10.07;67.19;100101.52;102816;1257;125460;-68
2023/04/30 05:06:06;;;;;;;;;;;;;;;10.11;67.27;100101.36;102914;1258;99044;-67
2023/04/30 05:08:49;;;;;;;;;;;;;;;10.16;67.36;100103.13;102849;1261;125376;-67
2023/04/30 05:11:21;;;;;;;;;;;;;;;10.18;66.97;100106.36;102889;1257;99244;-68
2023/04/30 05:13:52;;;;;;;;;;;;;;;10.17;67.01;100110.55;102984;1257;113111;-67
2023/04/30 05:16:18;;;;;;;;;;;;;;;10.17;66.76;100117.48;102802;1262;125289;-67
2023/04/30 05:19:01;;;;;;;;;;;;;;;10.16;66.83;100120.47;102998;1257;99064;-69
2023/04/30 05:21:35;;;;;;;;;;;;;;;10.20;66.86;100127.32;98895;1257;5380694;-67
2023/04/30 05:24:06;;;;;;;;;;;;;;;10.25;66.94;100129.62;102984;1257;99644;-68
2023/04/30 05:26:32;;;;;;;;;;;;;;;10.31;66.85;100134.82;102935;1257;107905;-68
2023/04/30 05:29:16;;;;;;;;;;;;;;;10.36;66.76;100137.27;102929;1258;99472;-68
2023/04/30 05:31:49;;;;;;;;;;;;;;;10.40;66.82;100143.02;102982;1258;111612;-68
2023/04/30 05:34:11;;;;;;;;;;;;;;;10.46;66.73;100137.98;102897;1257;126292;-68
2023/04/30 05:36:54;;;;;;;;;;;;;;;10.52;66.62;100142.61;103018;1257;99227;-68
2023/04/30 05:39:28;;;;;;;;;;;;;;;10.57;66.58;100144.36;102868;1257;125358;-68
2023/04/30 05:41:54;;;;;;;;;;;;;;;10.59;66.46;100152.13;103008;1258;99240;-68
2023/04/30 05:44:19;;;;;;;;;;;;;;;10.63;66.42;100154.45;102967;1257;112312;-68
2023/04/30 05:47:02;;;;;;;;;;;;;;;10.69;66.48;100154.23;102956;1258;109679;-68
2023/04/30 05:49:45;;;;;;;;;;;;;;;10.76;66.49;100161.63;103000;1257;99218;-68
2023/04/30 05:52:14;;;;;;;;;;;;;;;10.81;66.36;100166.52;102884;1258;125229;-68
2023/04/30 05:54:37;;;;;;;;;;;;;;;10.86;66.57;100167.02;102958;1260;99164;-68
2023/04/30 05:56:59;;;;;;;;;;;;;;;10.94;66.57;100167.27;102958;1260;125382;-69
2023/04/30 05:59:22;;;;;;;;;;;;;;;11.03;66.37;100170.11;102950;1257;107580;-68
2023/04/30 06:02:00;;;;;;;;;;;;;;;11.07;66.33;100171.15;102976;1259;99137;-69
2023/04/30 06:04:43;;;;;;;;;;;;;;;11.11;66.21;100175.38;102873;1257;125279;-69
2023/04/30 06:07:06;;;;;;;;;;;;;;;11.17;66.25;100178.29;102900;1260;99439;-68
2023/04/30 06:09:38;;;;;;;;;;;;;;;11.30;66.13;100182.16;102889;1257;125204;-68
2023/04/30 06:12:02;;;;;;;;;;;;;;;11.48;66.07;100180.27;102949;1257;107642;-68
2023/04/30 06:14:27;;;;;;;;;;;;;;;11.71;65.84;100179.94;102979;1257;99046;-69
2023/04/30 06:17:09;;;;;;;;;;;;;;;11.90;65.26;100179.44;102994;1256;109978;-69
2023/04/30 06:19:32;;;;;;;;;;;;;;;11.91;64.71;100180.98;103061;1260;99147;-69
2023/04/30 06:21:54;;;;;;;;;;;;;;;11.92;64.44;100184.95;102922;1257;125146;-69
2023/04/30 06:24:38;;;;;;;;;;;;;;;11.94;64.69;100190.93;102969;1258;107629;-69
2023/04/30 06:27:11;;;;;;;;;;;;;;;11.98;64.53;100192.35;102856;1260;126183;-70
2023/04/30 06:29:36;;;;;;;;;;;;;;;11.93;64.55;100192.90;103009;1258;107668;-69
2023/04/30 06:31:58;;;;;;;;;;;;;;;11.85;64.45;100193.90;102987;1257;99127;-68
2023/04/30 06:34:21;;;;;;;;;;;;;;;11.73;64.23;100194.16;102918;1257;125412;-69
2023/04/30 06:37:04;;;;;;;;;;;;;;;11.59;64.26;100191.71;102923;1257;108378;-68
2023/04/30 06:39:36;;;;;;;;;;;;;;;11.49;64.22;100190.86;102898;1260;125394;-67
2023/04/30 06:41:58;;;;;;;;;;;;;;;11.68;64.33;100196.27;103074;1260;108275;-67
2023/04/30 06:44:42;;;;;;;;;;;;;;;12.31;63.58;100193.68;102926;1258;99209;-70
2023/04/30 06:47:07;;;;;;;;;;;;;;;14.07;62.74;100192.19;102847;1257;125193;-70
2023/04/30 06:49:32;;;;;;;;;;;;;;;16.44;58.62;100185.29;102879;1257;107681;-68
2023/04/30 06:51:57;;;;;;;;;;;;;;;18.24;53.73;100173.97;102930;1257;124720;-69
2023/04/30 06:54:21;;;;;;;;;;;;;;;19.48;51.34;100178.95;102939;1261;108388;-64
2023/04/30 06:56:44;;;;;;;;;;;;;;;21.42;50.32;100177.42;103196;1257;99186;-63
2023/04/30 06:59:07;;;;;;;;;;;;;;;23.53;48.17;100166.70;104082;1257;124872;-67
2023/04/30 07:01:30;;;;;;;;;;;;;;;25.50;44.79;100167.73;104223;1256;106924;-67
2023/04/30 07:03:53;;;;;;;;;;;;;;;26.95;39.81;100155.71;103162;1258;124646;-67
2023/04/30 07:06:16;;;;;;;;;;;;;;;27.96;37.51;100163.08;104371;1257;108196;-67
2023/04/30 07:08:40;;;;;;;;;;;;;;;28.74;36.49;100165.54;103262;1258;99123;-68
2023/04/30 07:11:02;;;;;;;;;;;;;;;29.64;34.38;100163.52;102830;1257;124346;-69
2023/04/30 07:13:25;;;;;;;;;;;;;;;30.44;32.76;100162.88;102834;1260;107373;-69
2023/04/30 07:15:48;;;;;;;;;;;;;;;30.26;30.33;100159.42;102839;1258;124924;-68
2023/04/30 07:18:11;;;;;;;;;;;;;;;28.90;29.81;100168.02;102923;1257;107699;-70
2023/04/30 07:20:33;;;;;;;;;;;;;;;28.07;29.88;100171.16;102906;1257;101047;-68
2023/04/30 07:22:57;;;;;;;;;;;;;;;28.67;29.82;100170.76;102816;1260;124795;-69
2023/04/30 07:25:19;;;;;;;;;;;;;;;29.65;28.93;100172.33;102884;1258;108620;-68
2023/04/30 07:27:43;;;;;;;;;;;;;;;30.58;28.03;100170.08;102831;1260;124706;-69
2023/04/30 07:30:09;;;;;;;;;;;;;;;31.37;26.95;100169.18;102929;1261;107838;-68
2023/04/30 07:32:32;;;;;;;;;;;;;;;31.89;25.49;100169.19;104386;1257;97112;-69
2023/04/30 07:34:55;;;;;;;;;;;;;;;32.39;25.25;100171.05;104254;1257;124772;-69
2023/04/30 07:37:19;;;;;;;;;;;;;;;32.74;24.69;100169.82;104355;1257;107670;-69
2023/04/30 07:39:41;;;;;;;;;;;;;;;33.02;23.56;100172.94;104255;1257;126643;-67
2023/04/30 07:42:04;;;;;;;;;;;;;;;33.26;23.82;100179.05;104364;1257;100048;-68
2023/04/30 07:44:27;;;;;;;;;;;;;;;33.62;23.37;100180.14;104358;1257;97377;-68
2023/04/30 07:46:49;;;;;;;;;;;;;;;33.95;22.98;100181.70;104242;1257;125039;-68
2023/04/30 07:49:12;;;;;;;;;;;;;;;33.94;22.51;100187.61;104314;1257;100232;-65
2023/04/30 07:51:35;;;;;;;;;;;;;;;34.01;21.60;100191.29;104276;1257;124631;-66
2023/04/30 07:53:58;;;;;;;;;;;;;;;34.10;21.32;100191.91;104342;1257;100088;-66
2023/04/30 07:56:21;;;;;;;;;;;;;;;34.15;20.94;100190.98;104341;1257;97367;-66
2023/04/30 07:58:44;;;;;;;;;;;;;;;34.31;20.63;100188.10;103692;1258;124534;-67
2023/04/30 08:01:06;;;;;;;;;;;;;;;34.40;20.39;100187.55;102824;1257;99574;-68
2023/04/30 08:03:29;;;;;;;;;;;;;;;34.24;20.48;100190.02;102795;1257;124773;-65
2023/04/30 08:05:52;;;;;;;;;;;;;;;34.03;19.90;100199.58;102931;1260;100111;-66
2023/04/30 08:08:15;;;;;;;;;;;;;;;33.80;19.80;100202.80;103387;1260;97798;-68
2023/04/30 08:10:38;;;;;;;;;;;;;;;33.59;19.26;100197.15;102882;1257;124592;-69
2023/04/30 08:13:00;;;;;;;;;;;;;;;33.29;19.30;100205.39;102853;1258;99302;-69
2023/04/30 08:15:23;;;;;;;;;;;;;;;33.23;19.77;100207.59;102893;1261;124771;-70
2023/04/30 08:17:46;;;;;;;;;;;;;;;33.07;19.20;100204.48;102944;1260;99570;-62
2023/04/30 08:20:09;;;;;;;;;;;;;;;32.78;19.30;100199.03;104342;1256;97262;-62
2023/04/30 08:22:32;;;;;;;;;;;;;;;32.64;19.39;100206.91;104265;1256;125455;-62
2023/04/30 08:24:55;;;;;;;;;;;;;;;32.45;19.54;100209.70;104371;1257;99961;-62
2023/04/30 08:27:17;;;;;;;;;;;;;;;32.28;19.57;100215.91;104320;1257;125147;-61
2023/04/30 08:29:40;;;;;;;;;;;;;;;32.22;19.61;100216.49;104317;1257;108658;-62
2023/04/30 08:32:03;;;;;;;;;;;;;;;32.01;18.59;100219.14;104308;1257;97455;-62
2023/04/30 08:34:25;;;;;;;;;;;;;;;31.51;18.81;100220.02;103607;1257;124384;-62
2023/04/30 08:36:48;;;;;;;;;;;;;;;31.14;18.40;100224.76;102895;1257;108229;-62
2023/04/30 08:39:11;;;;;;;;;;;;;;;30.84;18.09;100224.27;102941;1257;125093;-62
2023/04/30 08:41:35;;;;;;;;;;;;;;;30.41;18.12;100236.42;102891;1258;109767;-62
2023/04/30 08:44:00;;;;;;;;;;;;;;;30.05;18.30;100237.52;102962;1257;99151;-61
2023/04/30 08:46:24;;;;;;;;;;;;;;;29.85;18.01;100239.23;103401;1257;124672;-62
2023/04/30 08:48:47;;;;;;;;;;;;;;;29.66;18.42;100243.60;104019;1257;106801;-63
2023/04/30 08:51:10;;;;;;;;;;;;;;;29.58;18.86;100239.98;102937;1259;124878;-64
2023/04/30 08:53:34;;;;;;;;;;;;;;;29.40;19.08;100240.14;104397;1257;107682;-61
2023/04/30 08:55:57;;;;;;;;;;;;;;;29.21;18.23;100241.64;102960;1261;99155;-63
2023/04/30 08:58:20;;;;;;;;;;;;;;;29.10;18.35;100246.73;102842;1257;124697;-60
2023/04/30 09:00:42;;;;;;;;;;;;;;;29.18;18.55;100245.70;103034;1260;107618;-63
2023/04/30 09:03:05;;;;;;;;;;;;;;;29.32;18.99;100248.64;103053;1258;124821;-71
2023/04/30 09:05:29;;;;;;;;;;;;;;;29.26;18.38;100249.05;103070;1260;107820;-67
2023/04/30 09:07:52;;;;;;;;;;;;;;;29.05;18.65;100247.90;103005;1260;99236;-66
2023/04/30 09:10:26;;;;;;;;;;;;;;;29.01;19.44;100249.94;103607;1257;125040;-65
2023/04/30 09:13:09;;;;;;;;;;;;;;;29.08;19.30;100248.20;102978;1257;108599;-67
2023/04/30 09:15:33;;;;;;;;;;;;;;;29.07;19.35;100254.03;103013;1257;124934;-65
2023/04/30 09:18:09;;;;;;;;;;;;;;;29.15;18.87;100255.81;103399;1257;107397;-66
2023/04/30 09:20:31;;;;;;;;;;;;;;;29.13;18.93;100257.30;103500;1257;99161;-64
2023/04/30 09:23:05;;;;;;;;;;;;;;;29.14;18.67;100265.05;102977;1257;125126;-65
2023/04/30 09:25:37;;;;;;;;;;;;;;;29.17;18.62;100264.04;103047;1261;108483;-67
2023/04/30 09:28:07;;;;;;;;;;;;;;;29.00;18.00;100273.30;103382;1257;124710;-66
2023/04/30 09:30:31;;;;;;;;;;;;;;;28.81;18.15;100262.99;102992;1260;108976;-65
2023/04/30 09:32:56;;;;;;;;;;;;;;;28.66;18.51;100263.88;104230;1257;124981;-68
2023/04/30 09:35:29;;;;;;;;;;;;;;;28.45;18.87;100274.43;103286;1257;113051;-68
2023/04/30 09:38:12;;;;;;;;;;;;;;;28.36;18.71;100273.90;103005;1260;108718;-69
2023/04/30 09:40:39;;;;;;;;;;;;;;;28.36;18.95;100274.45;102987;1260;124816;-64
2023/04/30 09:43:02;;;;;;;;;;;;;;;28.17;18.77;100274.48;103367;1258;107076;-59
2023/04/30 09:45:25;;;;;;;;;;;;;;;28.20;19.28;100271.98;102858;1257;124887;-59
2023/04/30 09:47:47;;;;;;;;;;;;;;;28.12;18.02;100274.43;102998;1260;113481;-59
2023/04/30 09:50:12;;;;;;;;;;;;;;;27.87;18.37;100278.37;103013;1258;108077;-59
2023/04/30 09:52:37;;;;;;;;;;;;;;;27.74;19.24;100276.53;104283;1257;125150;-61
2023/04/30 09:55:00;;;;;;;;;;;;;;;27.70;19.01;100277.81;104384;1257;107439;-61
2023/04/30 09:57:23;;;;;;;;;;;;;;;27.43;18.42;100269.70;104322;1258;125547;-60
2023/04/30 09:59:46;;;;;;;;;;;;;;;27.17;18.99;100264.87;104401;1257;113702;-60
2023/04/30 10:02:09;;;;;;;;;;;;;;;26.92;18.97;100271.46;104361;1257;107599;-60
2023/04/30 10:04:33;;;;;;;;;;;;;;;26.67;19.40;100276.11;103444;1257;124754;-61
2023/04/30 10:06:57;;;;;;;;;;;;;;;26.55;19.71;100277.46;103094;1257;108203;-59
2023/04/30 10:09:20;;;;;;;;;;;;;;;26.58;20.03;100271.33;104351;1257;124715;-60
2023/04/30 10:11:44;;;;;;;;;;;;;;;26.69;19.74;100267.69;103652;1257;113345;-60
2023/04/30 10:14:09;;;;;;;;;;;;;;;26.67;19.88;100269.34;103072;1257;108813;-59
2023/04/30 10:16:34;;;;;;;;;;;;;;;26.80;20.02;100272.45;103381;1257;124650;-59
2023/04/30 10:18:59;;;;;;;;;;;;;;;26.81;19.66;100275.23;103108;1258;108793;-59
2023/04/30 10:21:22;;;;;;;;;;;;;;;26.73;19.93;100268.66;103179;1257;126470;-60
2023/04/30 10:23:45;;;;;;;;;;;;;;;26.81;20.35;100272.00;103452;1258;115178;-60
2023/04/30 10:26:10;;;;;;;;;;;;;;;26.88;19.88;100271.31;103030;1257;108745;-60
2023/04/30 10:28:32;;;;;;;;;;;;;;;26.80;19.39;100274.59;103047;1258;124636;-59
2023/04/30 10:30:56;;;;;;;;;;;;;;;26.68;19.41;100275.24;103171;1257;108630;-59
2023/04/30 10:33:22;;;;;;;;;;;;;;;26.59;19.42;100269.80;103138;1258;125210;-59
2023/04/30 10:35:50;;;;;;;;;;;;;;;26.27;19.58;100278.21;103475;1258;112648;-60
2023/04/30 10:38:15;;;;;;;;;;;;;;;26.03;20.02;100276.14;103639;1258;107456;-59
2023/04/30 10:40:38;;;;;;;;;;;;;;;25.92;19.87;100277.36;103037;1257;124754;-59
2023/04/30 10:43:00;;;;;;;;;;;;;;;25.58;19.98;100273.95;103110;1257;108709;-60
2023/04/30 10:45:35;;;;;;;;;;;;;;;25.33;20.15;100275.12;103137;1257;124889;-59
2023/04/30 10:48:00;;;;;;;;;;;;;;;25.12;20.23;100268.21;103223;1257;113499;-59
2023/04/30 10:50:23;;;;;;;;;;;;;;;24.75;19.90;100274.41;103163;1259;107607;-61
2023/04/30 10:52:46;;;;;;;;;;;;;;;24.46;20.31;100275.92;103108;1257;124728;-59
2023/04/30 10:55:10;;;;;;;;;;;;;;;24.07;20.15;100281.87;103094;1260;108028;-60
2023/04/30 10:57:39;;;;;;;;;;;;;;;23.82;20.42;100284.30;103307;1258;125184;-59
2023/04/30 11:00:24;;;;;;;;;;;;;;;23.55;20.91;100281.09;103323;1259;112488;-59
2023/04/30 11:02:47;;;;;;;;;;;;;;;23.33;21.16;100285.43;103338;1257;107808;-60
2023/04/30 11:05:12;;;;;;;;;;;;;;;23.05;21.18;100283.34;103759;1257;99175;-59
2023/04/30 11:07:47;;;;;;;;;;;;;;;22.71;21.40;100287.55;103192;1257;108866;-60
2023/04/30 11:10:10;;;;;;;;;;;;;;;22.31;21.88;100294.58;103033;1257;124649;-59
2023/04/30 11:12:33;;;;;;;;;;;;;;;22.10;22.46;100297.80;103524;1257;111848;-59
2023/04/30 11:14:59;;;;;;;;;;;;;;;21.93;22.64;100296.48;102937;1259;124786;-59
2023/04/30 11:17:23;;;;;;;;;;;;;;;21.76;22.69;100296.39;103141;1257;99057;-59
2023/04/30 11:19:47;;;;;;;;;;;;;;;21.58;22.61;100296.52;103088;1257;107902;-58
2023/04/30 11:22:21;;;;;;;;;;;;;;;21.26;22.62;100303.11;103366;1258;124608;-60
2023/04/30 11:24:51;;;;;;;;;;;;;;;20.93;22.51;100303.42;103395;1257;112491;-60
2023/04/30 11:27:14;;;;;;;;;;;;;;;20.72;22.87;100309.44;103279;1257;124778;-60
2023/04/30 11:29:36;;;;;;;;;;;;;;;20.55;23.15;100304.86;103128;1257;99135;-60
2023/04/30 11:32:00;;;;;;;;;;;;;;;20.46;23.04;100312.34;103151;1259;108613;-60
2023/04/30 11:34:23;;;;;;;;;;;;;;;20.37;23.03;100312.47;103019;1260;124776;-60
2023/04/30 11:36:45;;;;;;;;;;;;;;;20.22;22.82;100313.17;103109;1257;112518;-60
2023/04/30 11:39:09;;;;;;;;;;;;;;;20.05;22.99;100309.63;103135;1259;124868;-59
2023/04/30 11:41:39;;;;;;;;;;;;;;;20.02;23.11;100310.36;103160;1257;99254;-60
2023/04/30 11:44:21;;;;;;;;;;;;;;;19.89;23.19;100316.17;103142;1257;108235;-60
2023/04/30 11:46:43;;;;;;;;;;;;;;;19.71;23.29;100319.42;102968;1259;124799;-60
2023/04/30 11:49:07;;;;;;;;;;;;;;;19.60;23.70;100316.95;103196;1257;113487;-60
2023/04/30 11:51:35;;;;;;;;;;;;;;;19.67;24.19;100313.52;102996;1259;124640;-59
2023/04/30 11:53:59;;;;;;;;;;;;;;;19.79;23.99;100322.02;103080;1260;99032;-61
2023/04/30 11:56:22;;;;;;;;;;;;;;;19.78;23.62;100317.15;103124;1257;108703;-61
2023/04/30 11:58:46;;;;;;;;;;;;;;;19.64;23.80;100320.59;103622;1259;125379;-61
2023/04/30 12:01:09;;;;;;;;;;;;;;;19.61;24.26;100327.16;103307;1259;112883;-60
2023/04/30 12:03:33;;;;;;;;;;;;;;;19.67;24.11;100324.80;103255;1257;124648;-60
2023/04/30 12:05:55;;;;;;;;;;;;;;;19.68;24.13;100325.05;103611;1259;99245;-61
2023/04/30 12:08:19;;;;;;;;;;;;;;;19.67;24.03;100323.02;103174;1258;107423;-61
2023/04/30 12:10:44;;;;;;;;;;;;;;;19.60;23.96;100333.21;103005;1259;124895;-61
2023/04/30 12:13:07;;;;;;;;;;;;;;;19.52;24.16;100332.15;103055;1258;112371;-64
2023/04/30 12:15:31;;;;;;;;;;;;;;;19.52;24.64;100327.73;103137;1258;125023;-63
2023/04/30 12:17:55;;;;;;;;;;;;;;;19.63;25.12;100333.55;103091;1258;99168;-63
2023/04/30 12:20:20;;;;;;;;;;;;;;;19.76;24.90;100329.77;102966;1259;108215;-67
2023/04/30 12:22:45;;;;;;;;;;;;;;;19.78;24.75;100322.97;103025;1258;124758;-67
2023/04/30 12:25:12;;;;;;;;;;;;;;;19.69;24.88;100330.11;103073;1259;113959;-67
2023/04/30 12:27:35;;;;;;;;;;;;;;;19.66;24.95;100322.60;103111;1259;124702;-65
2023/04/30 12:30:02;;;;;;;;;;;;;;;19.71;25.39;100320.63;103350;1261;99113;-61
2023/04/30 12:32:24;;;;;;;;;;;;;;;19.63;24.81;100330.35;103041;1260;108528;-61
2023/04/30 12:34:50;;;;;;;;;;;;;;;19.60;24.99;100327.22;103474;1256;124648;-60